Terminal Aerodrome Forecast
Issued by NWS

Home | Current Version | Previous Version | Text Only | Print | Product List | Glossary On
Versions: 1 2 3 4 5 6 7 8 9 10 11 12 13 14 15 16 17 18 19 20 21 22 23 24 25 26 27 28 29 30 31 32 33 34
891
FTUS45 KTFX 170602 RRA
TAFHVR
TAF
KHVR 170602Z 1706/1806 VRB03KT 6SM BR OVC005
     FM170900 VRB05KT 2SM BR OVC010
     FM171800 08010KT 4SM -SHSN BKN015 OVC040
     FM172200 08011KT 1SM -SN BR SCT010 BKN020
      TEMPO 1801/1804 3/4SM -SN BR BKN010=

USA.gov is the U.S. government's official web portal to all federal, state and local government web resources and services.